createdAt,value
2023-04-02T00:00:38.126Z,5.70
2023-04-02T00:03:09.822Z,5.13
2023-04-02T00:05:51.538Z,4.33
2023-04-02T00:08:41.386Z,5.47
2023-04-02T00:11:09.243Z,6.10
2023-04-02T00:13:46.801Z,4.70
2023-04-02T00:16:25.684Z,3.90
2023-04-02T00:18:58.545Z,5.00
2023-04-02T00:21:33.132Z,4.33
2023-04-02T00:24:02.488Z,3.77
2023-04-02T00:26:37.140Z,3.87
2023-04-02T00:29:10.200Z,4.27
2023-04-02T00:31:42.207Z,4.20
2023-04-02T00:34:18.766Z,4.37
2023-04-02T00:36:47.540Z,3.90
2023-04-02T00:39:29.839Z,4.10
2023-04-02T00:42:04.898Z,3.20
2023-04-02T00:44:37.901Z,4.27
2023-04-02T00:47:21.827Z,3.77
2023-04-02T00:49:57.569Z,4.17
2023-04-02T00:52:29.618Z,4.63
2023-04-02T00:55:14.059Z,4.57
2023-04-02T00:57:45.607Z,4.43
2023-04-02T01:00:23.828Z,6.50
2023-04-02T01:03:13.927Z,4.80
2023-04-02T01:05:42.610Z,3.60
2023-04-02T01:08:27.407Z,3.60
2023-04-02T01:11:32.484Z,3.17
2023-04-02T01:14:39.378Z,3.77
2023-04-02T01:17:32.020Z,3.93
2023-04-02T01:20:39.056Z,3.93
2023-04-02T01:23:18.105Z,3.87
2023-04-02T01:26:15.868Z,4.43
2023-04-02T01:29:09.369Z,3.00
2023-04-02T01:31:37.019Z,3.70
2023-04-02T01:34:08.036Z,3.30
2023-04-02T01:37:22.298Z,3.00
2023-04-02T01:40:14.619Z,2.80
2023-04-02T01:43:15.282Z,2.50
2023-04-02T01:45:42.331Z,3.70
2023-04-02T01:48:41.477Z,3.80
2023-04-02T01:51:44.735Z,2.73
2023-04-02T01:54:39.489Z,3.17
2023-04-02T01:57:17.771Z,3.13
2023-04-02T02:00:30.960Z,3.60
2023-04-02T02:03:22.511Z,3.60
2023-04-02T02:05:59.080Z,3.10
2023-04-02T02:09:20.810Z,3.30
2023-04-02T02:11:52.506Z,3.17
2023-04-02T02:14:38.503Z,2.93
2023-04-02T02:17:16.417Z,2.70
2023-04-02T02:20:22.915Z,2.50
2023-04-02T02:22:52.164Z,2.50
2023-04-02T02:25:44.756Z,3.00
2023-04-02T02:28:29.280Z,2.70
2023-04-02T02:31:05.586Z,2.20
2023-04-02T02:33:42.225Z,2.10
2023-04-02T02:36:23.141Z,2.23
2023-04-02T02:47:02.665Z,3.50
2023-04-02T02:49:33.841Z,2.17
